Bauer, UT

11:13 AM MST on February 21, 2017 (GMT -0700)
Stockton, UT | | Change Station
Active Advisory: Wind Advisory

Elev 5168 ft 40.45 °N, 112.36 °W | Updated 1 minute ago

Partly Cloudy
Partly Cloudy
54.0 °F
Feels Like 54.0 °F
N
0.0
Wind Variable Wind from SSE

Today
High -- | Low -- °F
--% Chance of Precip.
Yesterday
High -- | Low -- °F
Precip. -- in
Pressure 30.05 in
Visibility 10.0 miles
Clouds Clear
Dew Point 33 °F
Humidity 45%
Rainfall 0.00 in
Snow Depth Not available.
7:14 AM 6:12 PM
Waning Crescent, 23% visible
METAR KU42 211755Z AUTO 16026G37KT 10SM CLR 14/07 A3005 RMK AO1 T01420071 10149 20110
Pressure 30.05 in
Visibility 10.0 miles
Clouds Clear
Dew Point 33 °F
Humidity 45%
Rainfall 0.00 in
Snow Depth Not available.
7:14 AM 6:12 PM
Waning Crescent, 23% visible
METAR KU42 211755Z AUTO 16026G37KT 10SM CLR 14/07 A3005 RMK AO1 T01420071 10149 20110

Get Your Daily Forecast Email!

Thanks for signing up!

Be on the lookout for a verification email in your inbox.

You'll start receiving the daily forecast at 8 AM.

×

10-Day Weather Forecast

Almanac

Astronomy

Feb. 21, 2017 Rise Set
Actual Time
Civil Twilight
Nautical Twilight
Astronomical Twilight
Moon
Length of Visible Light
Length of Day
Tomorrow will be .
, % of the Moon is Illuminated

Today's Extremes

State Highs State Lows

Community

WunderPhotos

Upload Photos

1,962,540 photos uploaded!

WunderBlog® & News

Nearby

Air Quality

  Air Quality AQ Index Pollutant
Not available.

Snow Depth

Station Depth Elevation

Earthquake Activity

City Distance Mag. Time & Date
Minimum magnitude displayed is 2.5.

Coastal Water Temperatures

Place Temperature

Stations

Nearby Weather Stations

Station Location Temp. Windchill Dew Point Humidity Wind Precip. Elev Updated Type
                   

Watches & Warnings

Wind Advisory
Issued: 10:06 AM MST Feb. 21, 2017 – National Weather Service

... Wind Advisory remains in effect until 9 PM MST this evening...

* affected area... the western valleys of Utah including the Salt
Lake and Tooele valleys.

* Winds... south winds of 25 to 35 mph with gusts in excess of 50
mph.

* Timing... winds will remain strong through the day today before
diminishing this evening.

* Impacts... strong cross winds will affect east-west oriented
routes including I-80 across northwest Utah and Highway 50
across west central Utah. Light weight and high profile
vehicles should use extra caution.

Precautionary/preparedness actions...

A Wind Advisory means that sustained wind speeds of at least
31 mph or gusts of 45 mph are expected. Motorists in the advisory
area should be prepared for sudden gusty cross winds which can
make driving difficult.



For more information from NOAA/National Weather Service visit...
http://weather.Gov/saltlakecity